createdAt,value
2023-03-30T00:00:57.697Z,23.53
2023-03-30T00:03:27.233Z,22.57
2023-03-30T00:05:57.727Z,26.90
2023-03-30T00:08:28.837Z,18.97
2023-03-30T00:11:06.724Z,26.97
2023-03-30T00:13:35.436Z,20.37
2023-03-30T00:16:02.974Z,22.33
2023-03-30T00:18:33.957Z,23.93
2023-03-30T00:21:03.320Z,25.53
2023-03-30T00:23:30.096Z,21.83
2023-03-30T00:25:56.744Z,19.00
2023-03-30T00:28:24.038Z,22.77
2023-03-30T00:30:52.874Z,18.63
2023-03-30T00:33:27.502Z,22.90
2023-03-30T00:36:00.513Z,20.37
2023-03-30T00:38:27.229Z,20.87
2023-03-30T00:40:55.999Z,21.73
2023-03-30T00:43:22.755Z,17.47
2023-03-30T00:45:49.314Z,20.43
2023-03-30T00:48:22.776Z,22.10
2023-03-30T00:50:53.221Z,22.27
2023-03-30T00:53:30.407Z,21.23
2023-03-30T00:55:57.930Z,20.53
2023-03-30T00:58:26.394Z,19.33
2023-03-30T01:00:53.146Z,21.80
2023-03-30T01:03:24.248Z,21.70
2023-03-30T01:05:52.231Z,19.70
2023-03-30T01:08:20.094Z,17.23
2023-03-30T01:10:46.645Z,24.93
2023-03-30T01:13:14.147Z,23.23
2023-03-30T01:16:11.066Z,17.50
2023-03-30T01:18:48.430Z,25.37
2023-03-30T01:21:34.149Z,22.17
2023-03-30T01:24:35.295Z,20.73
2023-03-30T01:27:20.024Z,18.87
2023-03-30T01:30:21.921Z,23.93
2023-03-30T01:32:56.194Z,20.30
2023-03-30T01:35:36.659Z,27.27
2023-03-30T01:38:08.969Z,20.27
2023-03-30T01:41:06.501Z,20.73
2023-03-30T01:43:45.037Z,23.37
2023-03-30T01:46:25.067Z,23.47
2023-03-30T01:49:05.858Z,23.07
2023-03-30T01:51:45.940Z,26.90
2023-03-30T01:54:22.672Z,22.83
2023-03-30T01:56:56.843Z,24.53
2023-03-30T01:59:31.483Z,22.43
2023-03-30T02:02:04.284Z,24.67
2023-03-30T02:04:34.860Z,22.20
2023-03-30T02:07:06.505Z,25.40
2023-03-30T02:09:33.980Z,20.77
2023-03-30T02:12:00.755Z,26.70
2023-03-30T02:14:31.160Z,23.70
2023-03-30T02:17:06.610Z,23.73
2023-03-30T02:19:33.947Z,22.17
2023-03-30T02:22:01.223Z,21.57
2023-03-30T02:24:28.853Z,29.60
2023-03-30T02:26:55.513Z,29.77
2023-03-30T02:29:22.848Z,21.80
2023-03-30T02:31:51.159Z,21.83
2023-03-30T02:34:30.009Z,21.90
2023-03-30T02:37:24.231Z,21.27
2023-03-30T02:39:55.596Z,29.67
2023-03-30T02:42:51.486Z,20.90
2023-03-30T02:45:39.546Z,24.23
2023-03-30T02:48:27.190Z,18.63
2023-03-30T02:51:22.992Z,24.07
2023-03-30T02:54:29.726Z,22.50
2023-03-30T02:57:08.271Z,25.03
2023-03-30T02:59:38.081Z,21.73
2023-03-30T03:02:14.299Z,26.67
2023-03-30T03:04:43.656Z,23.67
2023-03-30T03:07:11.999Z,18.57
2023-03-30T03:09:38.528Z,21.00
2023-03-30T03:12:05.282Z,24.20
2023-03-30T03:14:31.769Z,21.63
2023-03-30T03:16:58.323Z,25.13
2023-03-30T03:19:24.868Z,22.90
2023-03-30T03:21:51.780Z,24.23
2023-03-30T03:24:18.960Z,22.90
2023-03-30T03:26:46.028Z,21.60
2023-03-30T03:29:12.494Z,22.87
2023-03-30T03:31:39.161Z,26.23
2023-03-30T03:34:05.999Z,21.40
2023-03-30T03:36:32.524Z,24.30
2023-03-30T03:38:59.071Z,23.93
2023-03-30T03:41:26.283Z,22.97
2023-03-30T03:43:52.784Z,26.17
2023-03-30T03:46:19.305Z,25.27
2023-03-30T03:48:46.289Z,24.87
2023-03-30T03:51:12.808Z,26.33
2023-03-30T03:53:39.275Z,23.70
2023-03-30T03:56:06.027Z,25.47
2023-03-30T03:58:32.650Z,26.43
2023-03-30T04:01:00.915Z,25.53
2023-03-30T04:03:28.109Z,27.83
2023-03-30T04:05:58.497Z,29.10
2023-03-30T04:08:25.747Z,25.57
2023-03-30T04:10:52.178Z,27.13
2023-03-30T04:13:18.664Z,23.37
2023-03-30T04:15:45.336Z,24.73
2023-03-30T04:18:11.828Z,23.93
2023-03-30T04:20:38.388Z,28.77
2023-03-30T04:23:04.869Z,28.13
2023-03-30T04:25:31.340Z,26.80
2023-03-30T04:27:57.842Z,21.40
2023-03-30T04:30:24.484Z,21.60
2023-03-30T04:33:17.070Z,24.80
2023-03-30T04:35:43.615Z,28.23
2023-03-30T04:38:10.276Z,25.60
2023-03-30T04:40:36.864Z,26.43
2023-03-30T04:43:07.160Z,32.73
2023-03-30T04:45:33.721Z,28.97
2023-03-30T04:48:00.625Z,27.33
2023-03-30T04:50:27.322Z,31.33
2023-03-30T04:52:53.909Z,31.37
2023-03-30T04:55:20.432Z,22.40
2023-03-30T04:57:47.100Z,26.53
2023-03-30T05:00:14.363Z,31.70
2023-03-30T05:02:41.074Z,25.70
2023-03-30T05:05:08.118Z,24.60
2023-03-30T05:07:34.743Z,27.00
2023-03-30T05:10:01.444Z,33.23
2023-03-30T05:12:27.927Z,22.27
2023-03-30T05:14:54.433Z,24.57
2023-03-30T05:17:20.982Z,26.80
2023-03-30T05:19:47.889Z,28.43
2023-03-30T05:22:15.540Z,31.53
2023-03-30T05:24:42.127Z,30.93
2023-03-30T05:27:08.731Z,28.10
2023-03-30T05:29:35.605Z,24.57
2023-03-30T05:32:03.642Z,27.90
2023-03-30T05:34:30.582Z,33.77
2023-03-30T05:36:57.274Z,29.53
2023-03-30T05:39:23.945Z,29.63
2023-03-30T05:41:50.900Z,27.17
2023-03-30T05:44:19.985Z,29.43
2023-03-30T05:46:48.021Z,26.63
2023-03-30T05:49:14.824Z,30.10
2023-03-30T05:51:41.443Z,28.77
2023-03-30T05:54:11.348Z,29.50
2023-03-30T05:56:38.102Z,31.73
2023-03-30T05:59:05.275Z,27.87
2023-03-30T06:01:31.982Z,27.83
2023-03-30T06:03:59.517Z,29.97
2023-03-30T06:06:27.205Z,37.63
2023-03-30T06:08:53.733Z,33.57
2023-03-30T06:11:20.401Z,28.50
2023-03-30T06:13:46.960Z,29.23
2023-03-30T06:16:13.522Z,30.43
2023-03-30T06:18:40.103Z,36.53
2023-03-30T06:21:07.385Z,30.80
2023-03-30T06:23:35.862Z,30.50
2023-03-30T06:26:03.044Z,32.77
2023-03-30T06:28:29.908Z,27.40
2023-03-30T06:30:56.637Z,28.03
2023-03-30T06:33:23.347Z,34.80
2023-03-30T06:35:51.456Z,29.83
2023-03-30T06:38:19.156Z,24.63
2023-03-30T06:40:46.031Z,26.60
2023-03-30T06:43:18.610Z,30.10
2023-03-30T06:45:57.324Z,26.57
2023-03-30T06:48:24.770Z,26.40
2023-03-30T06:50:52.519Z,32.87
2023-03-30T06:53:20.024Z,31.93
2023-03-30T06:55:54.549Z,30.60
2023-03-30T06:58:21.671Z,30.90
2023-03-30T07:00:48.255Z,33.80
2023-03-30T07:03:19.056Z,29.30
2023-03-30T07:05:49.568Z,26.10
2023-03-30T07:08:17.141Z,27.57
2023-03-30T07:10:43.737Z,29.93
2023-03-30T07:13:10.369Z,23.63
2023-03-30T07:15:36.995Z,29.53
2023-03-30T07:18:04.709Z,26.27
2023-03-30T07:20:31.568Z,27.70
2023-03-30T07:22:58.189Z,35.93
2023-03-30T07:25:24.859Z,29.00
2023-03-30T07:27:51.495Z,28.13
2023-03-30T07:30:21.950Z,27.60
2023-03-30T07:32:54.351Z,28.13
2023-03-30T07:35:22.709Z,24.10
2023-03-30T07:37:50.957Z,24.87
2023-03-30T07:40:18.709Z,35.87
2023-03-30T07:42:45.518Z,30.33
2023-03-30T07:45:14.815Z,28.40
2023-03-30T07:47:42.965Z,31.17
2023-03-30T07:50:10.327Z,30.30
2023-03-30T07:52:37.820Z,26.63
2023-03-30T07:55:05.024Z,28.07
2023-03-30T07:57:32.093Z,24.80
2023-03-30T07:59:58.787Z,28.20
2023-03-30T08:02:25.664Z,35.53
2023-03-30T08:04:53.206Z,26.10
2023-03-30T08:07:19.934Z,25.60
2023-03-30T08:09:46.607Z,31.80
2023-03-30T08:12:13.080Z,27.57
2023-03-30T08:14:39.586Z,27.17
2023-03-30T08:17:06.618Z,27.67
2023-03-30T08:19:33.116Z,29.30
2023-03-30T08:22:01.800Z,34.03
2023-03-30T08:24:28.363Z,24.70
2023-03-30T08:26:55.003Z,26.47
2023-03-30T08:29:21.692Z,25.33
2023-03-30T08:31:48.472Z,28.43
2023-03-30T08:34:15.315Z,30.10
2023-03-30T08:36:42.808Z,25.00
2023-03-30T08:39:10.747Z,27.13
2023-03-30T08:41:49.036Z,28.67
2023-03-30T08:44:31.145Z,32.83
2023-03-30T08:46:58.807Z,27.23
2023-03-30T08:49:26.732Z,23.10
2023-03-30T08:51:54.965Z,29.13
2023-03-30T08:54:22.792Z,27.63
2023-03-30T08:57:01.089Z,25.23
2023-03-30T08:59:33.591Z,28.70
2023-03-30T09:02:04.345Z,22.63
2023-03-30T09:04:57.781Z,24.37
2023-03-30T09:07:25.822Z,24.97
2023-03-30T09:09:52.555Z,25.10
2023-03-30T09:12:37.939Z,25.87
2023-03-30T09:15:20.270Z,21.73
2023-03-30T09:18:04.528Z,27.33
2023-03-30T09:20:33.436Z,30.80
2023-03-30T09:23:02.399Z,28.33
2023-03-30T09:25:32.508Z,28.70
2023-03-30T09:28:03.607Z,35.27
2023-03-30T09:30:40.014Z,25.07
2023-03-30T09:33:14.675Z,28.37
2023-03-30T09:35:44.759Z,23.77
2023-03-30T09:38:13.273Z,25.30
2023-03-30T09:41:01.088Z,32.80
2023-03-30T09:43:37.590Z,26.23
2023-03-30T09:46:08.087Z,28.07
2023-03-30T09:48:46.032Z,23.03
2023-03-30T09:51:30.522Z,32.00
2023-03-30T09:54:04.440Z,26.77
2023-03-30T09:56:47.124Z,27.83
2023-03-30T09:59:32.587Z,28.50
2023-03-30T10:02:16.563Z,28.27
2023-03-30T10:04:52.919Z,24.00
2023-03-30T10:07:35.260Z,25.80
2023-03-30T10:10:36.100Z,26.70
2023-03-30T10:13:14.915Z,23.43
2023-03-30T10:15:44.259Z,20.70
2023-03-30T10:18:43.039Z,22.57
2023-03-30T10:21:19.364Z,24.43
2023-03-30T10:23:59.691Z,24.10
2023-03-30T10:26:28.408Z,25.07
2023-03-30T10:28:57.135Z,19.40
2023-03-30T10:31:27.906Z,22.37
2023-03-30T10:34:00.005Z,18.70
2023-03-30T10:36:33.471Z,16.77
2023-03-30T10:39:12.882Z,20.57
2023-03-30T10:41:40.858Z,17.40
2023-03-30T10:44:18.773Z,26.37
2023-03-30T10:46:45.770Z,23.87
2023-03-30T10:49:39.702Z,18.97
2023-03-30T10:52:12.525Z,21.23
2023-03-30T10:54:45.977Z,21.10
2023-03-30T10:57:20.763Z,27.17
2023-03-30T11:00:18.252Z,17.33
2023-03-30T11:03:29.639Z,19.50
2023-03-30T11:06:24.285Z,17.77
2023-03-30T11:08:52.964Z,21.87
2023-03-30T11:11:24.086Z,18.70
2023-03-30T11:13:57.882Z,23.07
2023-03-30T11:16:45.775Z,20.20
2023-03-30T11:19:20.917Z,21.90
2023-03-30T11:21:58.231Z,18.97
2023-03-30T11:24:27.897Z,19.80
2023-03-30T11:27:17.484Z,20.43
2023-03-30T11:30:14.415Z,17.23
2023-03-30T11:33:17.954Z,20.43
2023-03-30T11:35:51.638Z,19.77
2023-03-30T11:38:19.666Z,20.03
2023-03-30T11:40:52.083Z,18.90
2023-03-30T11:43:20.404Z,23.77
2023-03-30T11:46:04.014Z,16.10
2023-03-30T11:48:46.557Z,23.23
2023-03-30T11:51:52.756Z,14.90
2023-03-30T11:54:31.147Z,24.33
2023-03-30T11:57:45.730Z,21.57
2023-03-30T12:00:34.564Z,18.37
2023-03-30T12:03:16.434Z,19.83
2023-03-30T12:05:48.982Z,20.80
2023-03-30T12:08:31.028Z,21.60
2023-03-30T12:11:07.401Z,17.47
2023-03-30T12:13:48.394Z,17.23
2023-03-30T12:16:28.039Z,16.67
2023-03-30T12:19:10.028Z,19.53
2023-03-30T12:21:41.984Z,17.83
2023-03-30T12:24:23.679Z,24.17
2023-03-30T12:27:04.483Z,24.93
2023-03-30T12:32:31.252Z,16.67
2023-03-30T12:34:58.860Z,19.03
2023-03-30T12:37:29.089Z,21.37
2023-03-30T12:39:57.994Z,21.20
2023-03-30T12:42:26.665Z,18.73
2023-03-30T12:45:21.372Z,18.37
2023-03-30T12:48:03.383Z,18.73
2023-03-30T12:50:45.082Z,17.80
2023-03-30T12:53:14.438Z,23.33
2023-03-30T12:55:48.012Z,15.43
2023-03-30T12:59:05.193Z,17.03
2023-03-30T13:01:56.639Z,22.83
2023-03-30T13:04:25.567Z,18.77
2023-03-30T13:06:56.530Z,20.93
2023-03-30T13:09:26.253Z,20.17
2023-03-30T13:11:52.949Z,20.03
2023-03-30T13:14:28.416Z,24.23
2023-03-30T13:16:55.029Z,22.83
2023-03-30T13:19:27.594Z,15.53
2023-03-30T13:22:17.894Z,17.70
2023-03-30T13:24:57.840Z,13.13
2023-03-30T13:27:26.177Z,16.83
2023-03-30T13:29:56.693Z,17.73
2023-03-30T13:32:38.237Z,19.30
2023-03-30T13:35:25.312Z,24.57
2023-03-30T13:38:13.383Z,18.37
2023-03-30T13:40:54.346Z,17.83
2023-03-30T13:43:42.977Z,20.23
2023-03-30T13:46:37.385Z,16.47
2023-03-30T13:49:28.656Z,20.60
2023-03-30T13:52:01.806Z,21.43
2023-03-30T13:54:31.331Z,18.20
2023-03-30T13:57:38.914Z,15.20
2023-03-30T14:00:08.983Z,16.47
2023-03-30T14:02:39.245Z,12.27
2023-03-30T14:05:20.618Z,15.63
2023-03-30T14:07:47.568Z,12.27
2023-03-30T14:10:16.998Z,16.33
2023-03-30T14:12:44.389Z,20.97
2023-03-30T14:15:33.911Z,12.30
2023-03-30T14:18:02.014Z,14.57
2023-03-30T14:20:48.763Z,15.47
2023-03-30T14:23:31.605Z,16.00
2023-03-30T14:26:06.526Z,14.40
2023-03-30T14:28:38.366Z,13.23
2023-03-30T14:31:16.039Z,13.83
2023-03-30T14:33:43.084Z,13.10
2023-03-30T14:36:12.534Z,11.40
2023-03-30T14:38:41.896Z,12.03
2023-03-30T14:41:16.969Z,18.43
2023-03-30T14:43:47.877Z,9.40
2023-03-30T14:46:14.462Z,13.27
2023-03-30T14:48:43.587Z,15.33
2023-03-30T14:51:27.785Z,12.93
2023-03-30T14:53:55.514Z,12.50
2023-03-30T14:56:22.795Z,12.60
2023-03-30T14:58:51.379Z,11.37
2023-03-30T15:01:26.247Z,17.07
2023-03-30T15:03:53.195Z,14.03
2023-03-30T15:06:24.530Z,13.13
2023-03-30T15:08:51.192Z,13.80
2023-03-30T15:11:26.076Z,11.87
2023-03-30T15:13:55.106Z,14.10
2023-03-30T15:16:27.937Z,11.40
2023-03-30T15:19:01.621Z,16.50
2023-03-30T15:21:30.660Z,13.80
2023-03-30T15:23:58.608Z,13.93
2023-03-30T15:26:27.183Z,16.13
2023-03-30T15:28:57.261Z,12.77
2023-03-30T15:31:24.340Z,15.40
2023-03-30T15:33:57.689Z,19.57
2023-03-30T15:36:25.739Z,12.07
2023-03-30T15:38:54.995Z,10.90
2023-03-30T15:41:24.122Z,13.33
2023-03-30T15:44:11.149Z,16.57
2023-03-30T15:46:38.179Z,11.70
2023-03-30T15:49:05.553Z,14.20
2023-03-30T15:51:37.936Z,13.27
2023-03-30T15:54:13.186Z,10.23
2023-03-30T15:57:01.914Z,17.07
2023-03-30T15:59:32.442Z,15.00
2023-03-30T16:02:04.857Z,13.03
2023-03-30T16:04:32.358Z,9.97
2023-03-30T16:06:59.150Z,15.03
2023-03-30T16:09:25.806Z,14.53
2023-03-30T16:11:52.616Z,11.63
2023-03-30T16:14:20.806Z,14.77
2023-03-30T16:16:48.068Z,19.60
2023-03-30T16:19:17.385Z,13.70
2023-03-30T16:21:45.432Z,10.33
2023-03-30T16:24:12.394Z,16.57
2023-03-30T16:26:40.543Z,22.47
2023-03-30T16:29:19.105Z,16.43
2023-03-30T16:31:46.026Z,16.20
2023-03-30T16:34:12.618Z,15.33
2023-03-30T16:36:39.262Z,12.93
2023-03-30T16:39:19.032Z,21.07
2023-03-30T16:41:49.726Z,21.33
2023-03-30T16:44:17.420Z,18.50
2023-03-30T16:46:44.540Z,15.43
2023-03-30T16:49:22.079Z,21.30
2023-03-30T16:51:49.078Z,17.67
2023-03-30T16:54:29.547Z,15.53
2023-03-30T16:56:57.660Z,19.13
2023-03-30T16:59:26.192Z,19.30
2023-03-30T17:01:52.867Z,19.37
2023-03-30T17:04:19.795Z,17.20
2023-03-30T17:06:46.527Z,19.13
2023-03-30T17:09:16.741Z,19.57
2023-03-30T17:11:47.597Z,18.10
2023-03-30T17:14:15.163Z,22.97
2023-03-30T17:16:41.951Z,23.40
2023-03-30T17:19:13.200Z,21.20
2023-03-30T17:21:42.728Z,24.03
2023-03-30T17:24:10.650Z,30.30
2023-03-30T17:26:37.357Z,22.03
2023-03-30T17:29:04.460Z,19.03
2023-03-30T17:31:31.433Z,27.47
2023-03-30T17:33:58.306Z,24.00
2023-03-30T17:36:26.536Z,24.43
2023-03-30T17:38:53.610Z,21.70
2023-03-30T17:41:20.730Z,20.67
2023-03-30T17:43:48.441Z,18.97
2023-03-30T17:46:17.231Z,22.50
2023-03-30T17:48:44.003Z,24.53
2023-03-30T17:51:10.634Z,20.10
2023-03-30T17:53:37.519Z,22.57
2023-03-30T17:56:04.455Z,19.20
2023-03-30T17:58:34.085Z,17.50
2023-03-30T18:01:02.642Z,25.27
2023-03-30T18:03:29.709Z,23.80
2023-03-30T18:05:57.720Z,24.70
2023-03-30T18:08:25.643Z,20.87
2023-03-30T18:11:03.251Z,29.90
2023-03-30T18:13:30.786Z,23.20
2023-03-30T18:15:58.966Z,26.93
2023-03-30T18:18:28.171Z,22.87
2023-03-30T18:21:03.352Z,27.77
2023-03-30T18:23:31.760Z,31.07
2023-03-30T18:25:58.285Z,37.80
2023-03-30T18:28:26.212Z,28.47
2023-03-30T18:30:55.628Z,28.23
2023-03-30T18:33:22.299Z,24.30
2023-03-30T18:35:51.356Z,25.00
2023-03-30T18:38:20.147Z,27.97
2023-03-30T18:40:49.502Z,24.10
2023-03-30T18:43:16.657Z,23.10
2023-03-30T18:45:46.250Z,24.63
2023-03-30T18:48:15.365Z,27.03
2023-03-30T18:50:46.651Z,27.13
2023-03-30T18:53:18.010Z,28.83
2023-03-30T18:55:46.575Z,26.10
2023-03-30T18:58:16.061Z,28.10
2023-03-30T19:00:42.923Z,25.70
2023-03-30T19:03:09.700Z,31.63
2023-03-30T19:05:36.831Z,29.97
2023-03-30T19:08:07.068Z,34.23
2023-03-30T19:10:39.254Z,23.43
2023-03-30T19:13:06.108Z,30.60
2023-03-30T19:15:35.027Z,25.93
2023-03-30T19:18:05.109Z,30.70
2023-03-30T19:20:34.509Z,26.70
2023-03-30T19:23:01.201Z,31.10
2023-03-30T19:25:28.499Z,29.60
2023-03-30T19:28:03.376Z,29.40
2023-03-30T19:30:33.269Z,32.27
2023-03-30T19:33:03.249Z,43.07
2023-03-30T19:35:30.595Z,36.90
2023-03-30T19:37:57.439Z,37.93
